Decoded Metar for KCON (CONCORD in NH, USA) (IATA:CON) | Meteo·Mobile Aviation Weather
aviador You're here:

KCON Decoded Metar

CONCORD in NH, USA
Report Time2018-10-20 05:51:00
UTC Time2018-10-20 06:33:13
Flight Rules vfr VFR
WindVRB at 03 kt
Visibility9999 m
Phenomena:N/A
Clouds:Few 120 Hf
Expected CloudBase > 2,800 ft AGL from Temp-Dew spread
CeilingNone
Temp10°C (ISA -4)
Dew Point03°C (62% RH)
AAT7.4°C
QNH1007 hPa
Density Alt131 ft
Elevation338 ft
Report Wrong Elevation
Raw Report
KCON 200551Z AUTO VRB03KT 10SM FEW120 10/03 A2974 RMK AO2 SLP073
T01000033 10106 20089 58024=

Extra information for KCON:More info

Metar Taf Metar & Taf Last 4 Metars F.Rules Stats Wind Profile Meteogram Temp Stats Airport Information Weather charts Add Link Nearby VenuesMetar ALERT Operation Metar Decoded Social comments

AIRNAV info for KCON